createdAt,value
2019-06-26T00:00:55.924Z,12.60
2019-06-26T00:03:44.669Z,11.10
2019-06-26T00:06:33.012Z,9.28
2019-06-26T00:09:21.552Z,10.08
2019-06-26T00:12:10.277Z,11.57
2019-06-26T00:14:58.777Z,16.93
2019-06-26T00:17:47.528Z,9.43
2019-06-26T00:20:36.360Z,7.62
2019-06-26T00:23:24.848Z,8.13
2019-06-26T00:26:13.492Z,11.73
2019-06-26T00:29:02.216Z,10.50
2019-06-26T00:31:50.950Z,8.35
2019-06-26T00:34:39.507Z,13.13
2019-06-26T00:37:28.205Z,8.98
2019-06-26T00:40:17.371Z,11.73
2019-06-26T00:43:06.092Z,10.08
2019-06-26T00:45:54.913Z,10.95
2019-06-26T00:48:43.442Z,7.67
2019-06-26T00:51:33.369Z,14.23
2019-06-26T00:54:21.915Z,9.63
2019-06-26T00:57:10.581Z,8.98
2019-06-26T01:00:00.917Z,11.18
2019-06-26T01:02:49.769Z,8.35
2019-06-26T01:05:38.542Z,8.60
2019-06-26T01:08:26.960Z,9.95
2019-06-26T01:11:16.435Z,8.80
2019-06-26T01:14:05.176Z,11.48
2019-06-26T01:16:53.832Z,10.05
2019-06-26T01:19:42.741Z,6.87
2019-06-26T01:22:31.356Z,7.85
2019-06-26T01:25:21.114Z,8.25
2019-06-26T01:28:09.791Z,7.62
2019-06-26T01:30:58.327Z,9.00
2019-06-26T01:33:47.064Z,6.28
2019-06-26T01:36:35.929Z,5.83
2019-06-26T01:39:24.339Z,11.38
2019-06-26T01:42:13.042Z,8.93
2019-06-26T01:45:01.855Z,5.62
2019-06-26T01:47:50.480Z,9.30
2019-06-26T01:50:39.390Z,7.35
2019-06-26T01:53:27.882Z,11.20
2019-06-26T01:56:16.316Z,5.55
2019-06-26T01:59:04.843Z,7.00
2019-06-26T02:01:53.856Z,7.75
2019-06-26T02:04:42.408Z,5.87
2019-06-26T02:07:31.240Z,6.97
2019-06-26T02:10:20.202Z,5.92
2019-06-26T02:13:08.878Z,7.60
2019-06-26T02:15:57.361Z,7.03
2019-06-26T02:18:50.417Z,10.00
2019-06-26T02:21:38.796Z,8.98
2019-06-26T02:24:27.415Z,7.72
2019-06-26T02:27:16.057Z,10.23
2019-06-26T02:30:07.541Z,8.33
2019-06-26T02:32:56.074Z,8.20
2019-06-26T02:35:44.828Z,10.58
2019-06-26T02:38:33.561Z,6.30
2019-06-26T02:41:21.940Z,9.08
2019-06-26T02:44:10.391Z,7.40
2019-06-26T02:47:17.738Z,6.22
2019-06-26T02:49:49.145Z,7.42
2019-06-26T02:52:37.996Z,9.08
2019-06-26T02:55:27.746Z,10.70
2019-06-26T02:58:16.311Z,8.28
2019-06-26T03:01:04.902Z,8.40
2019-06-26T03:03:53.371Z,8.73
2019-06-26T03:06:42.254Z,10.13
2019-06-26T03:09:31.038Z,9.13
2019-06-26T03:12:19.742Z,7.92
2019-06-26T03:15:09.742Z,6.70
2019-06-26T03:17:58.781Z,8.10
2019-06-26T03:20:50.239Z,8.38
2019-06-26T03:23:39.007Z,8.43
2019-06-26T03:26:27.436Z,9.40
2019-06-26T03:29:15.835Z,8.65
2019-06-26T03:32:04.569Z,8.98
2019-06-26T03:34:53.105Z,10.25
2019-06-26T03:37:42.963Z,10.28
2019-06-26T03:40:31.725Z,10.75
2019-06-26T03:43:20.123Z,10.10
2019-06-26T03:46:08.560Z,7.87
2019-06-26T03:48:57.278Z,8.23
2019-06-26T03:51:45.884Z,8.70
2019-06-26T03:54:34.328Z,10.18
2019-06-26T03:57:22.835Z,9.30
2019-06-26T04:00:11.796Z,9.98
2019-06-26T04:03:00.460Z,6.47
2019-06-26T04:05:49.303Z,12.73
2019-06-26T04:08:39.130Z,10.03
2019-06-26T04:11:27.668Z,7.55
2019-06-26T04:14:16.520Z,13.80
2019-06-26T04:17:04.905Z,11.40
2019-06-26T04:19:53.846Z,9.28
2019-06-26T04:22:42.501Z,11.55
2019-06-26T04:25:31.283Z,7.47
2019-06-26T04:28:19.716Z,10.03
2019-06-26T04:31:08.425Z,13.62
2019-06-26T04:33:57.188Z,13.60
2019-06-26T04:36:45.827Z,11.53
2019-06-26T04:39:34.876Z,7.62
2019-06-26T04:42:23.280Z,7.47
2019-06-26T04:45:12.644Z,12.75
2019-06-26T04:48:01.229Z,10.28
2019-06-26T04:50:49.966Z,8.75
2019-06-26T04:53:38.584Z,9.00
2019-06-26T04:56:27.058Z,15.48
2019-06-26T04:59:15.788Z,12.00
2019-06-26T05:02:04.515Z,8.05
2019-06-26T05:04:53.190Z,11.57
2019-06-26T05:07:41.687Z,10.03
2019-06-26T05:10:30.849Z,11.43
2019-06-26T05:13:18.997Z,14.18
2019-06-26T05:16:14.837Z,12.07
2019-06-26T05:18:58.196Z,10.03
2019-06-26T05:21:46.910Z,14.35
2019-06-26T05:24:35.620Z,13.95
2019-06-26T05:27:24.348Z,17.73
2019-06-26T05:30:14.234Z,13.10
2019-06-26T05:33:02.810Z,13.88
2019-06-26T05:35:51.208Z,17.30
2019-06-26T05:38:39.852Z,12.80
2019-06-26T05:41:28.252Z,13.05
2019-06-26T05:44:16.741Z,14.13
2019-06-26T05:47:07.170Z,12.25
2019-06-26T05:49:57.149Z,9.78
2019-06-26T05:52:45.722Z,15.65
2019-06-26T05:55:34.433Z,12.68
2019-06-26T05:58:22.819Z,16.85
2019-06-26T06:01:11.722Z,20.77
2019-06-26T06:04:00.344Z,18.57
2019-06-26T06:06:48.872Z,13.88
2019-06-26T06:09:37.645Z,16.00
2019-06-26T06:12:26.419Z,14.45
2019-06-26T06:15:15.754Z,13.00
2019-06-26T06:18:04.231Z,14.18
2019-06-26T06:20:52.667Z,9.53
2019-06-26T06:23:41.283Z,11.20
2019-06-26T06:26:29.809Z,9.83
2019-06-26T06:29:18.444Z,11.22
2019-06-26T06:32:07.129Z,9.50
2019-06-26T06:34:55.871Z,7.87
2019-06-26T06:37:44.332Z,11.00
2019-06-26T06:40:32.800Z,14.85
2019-06-26T06:43:21.560Z,10.58
2019-06-26T06:46:10.273Z,17.00
2019-06-26T06:48:58.988Z,9.88
2019-06-26T06:51:47.672Z,10.50
2019-06-26T06:54:36.066Z,9.53
2019-06-26T06:57:24.538Z,15.05
2019-06-26T07:00:14.138Z,13.78
2019-06-26T07:03:02.665Z,12.13
2019-06-26T07:05:51.399Z,14.65
2019-06-26T07:08:39.629Z,14.87
2019-06-26T07:11:28.176Z,4.80
2019-06-26T07:14:16.565Z,13.08
2019-06-26T07:17:19.259Z,8.68
2019-06-26T07:19:55.245Z,5.95
2019-06-26T07:22:43.741Z,10.60
2019-06-26T07:25:32.514Z,12.40
2019-06-26T07:28:21.036Z,6.35
2019-06-26T07:31:09.488Z,13.93
2019-06-26T07:33:57.934Z,12.70
2019-06-26T07:36:46.699Z,13.32
2019-06-26T07:39:35.301Z,11.30
2019-06-26T07:42:23.758Z,7.15
2019-06-26T07:45:12.358Z,9.23
2019-06-26T07:48:02.492Z,10.18
2019-06-26T07:50:53.655Z,9.33
2019-06-26T07:53:42.451Z,4.83
2019-06-26T07:56:31.605Z,8.73
2019-06-26T07:59:20.015Z,8.50
2019-06-26T08:02:08.846Z,6.00
2019-06-26T08:04:57.629Z,6.33
2019-06-26T08:07:46.589Z,6.95
2019-06-26T08:10:35.317Z,6.35
2019-06-26T08:13:25.092Z,11.12
2019-06-26T08:16:13.396Z,6.72
2019-06-26T08:19:02.262Z,12.23
2019-06-26T08:21:50.863Z,7.90
2019-06-26T08:24:39.659Z,9.45
2019-06-26T08:27:27.989Z,8.35
2019-06-26T08:30:16.762Z,7.08
2019-06-26T08:33:11.857Z,4.90
2019-06-26T08:35:55.974Z,8.58
2019-06-26T08:38:44.584Z,5.08
2019-06-26T08:41:33.271Z,3.95
2019-06-26T08:44:21.729Z,4.80
2019-06-26T08:47:10.256Z,4.83
2019-06-26T08:49:58.706Z,11.50
2019-06-26T08:52:47.576Z,6.65
2019-06-26T08:55:36.231Z,8.98
2019-06-26T08:58:24.747Z,6.70
2019-06-26T09:01:13.324Z,6.20
2019-06-26T09:04:01.655Z,4.03
2019-06-26T09:06:51.454Z,6.28
2019-06-26T09:09:39.923Z,7.53
2019-06-26T09:12:28.296Z,3.30
2019-06-26T09:15:17.384Z,3.77
2019-06-26T09:18:06.086Z,4.30
2019-06-26T09:20:55.029Z,4.97
2019-06-26T09:23:43.438Z,2.30
2019-06-26T09:26:31.895Z,3.65
2019-06-26T09:29:23.684Z,4.28
2019-06-26T09:32:10.379Z,8.53
2019-06-26T09:34:59.297Z,8.38
2019-06-26T09:37:47.677Z,6.53
2019-06-26T09:40:36.145Z,5.33
2019-06-26T09:43:24.493Z,3.33
2019-06-26T09:46:13.408Z,8.83
2019-06-26T09:49:01.993Z,4.62
2019-06-26T09:51:50.833Z,5.35
2019-06-26T09:54:39.694Z,6.85
2019-06-26T09:57:28.270Z,7.97
2019-06-26T10:00:19.968Z,3.60
2019-06-26T10:03:08.276Z,3.80
2019-06-26T10:05:56.835Z,6.97
2019-06-26T10:08:46.748Z,3.00
2019-06-26T10:11:35.219Z,6.85
2019-06-26T10:14:23.644Z,8.10
2019-06-26T10:17:12.604Z,5.12
2019-06-26T10:20:01.256Z,3.27
2019-06-26T10:22:49.726Z,5.25
2019-06-26T10:25:38.519Z,8.73
2019-06-26T10:28:27.046Z,4.72
2019-06-26T10:31:18.340Z,4.85
2019-06-26T10:34:09.729Z,3.42
2019-06-26T10:36:56.754Z,7.87
2019-06-26T10:39:45.367Z,6.97
2019-06-26T10:42:34.042Z,6.65
2019-06-26T10:45:22.785Z,6.33
2019-06-26T10:48:11.528Z,6.92
2019-06-26T10:51:00.126Z,4.05
2019-06-26T10:53:48.407Z,11.12
2019-06-26T10:56:36.832Z,3.58
2019-06-26T10:59:25.640Z,4.20
2019-06-26T11:02:16.877Z,6.87
2019-06-26T11:05:09.364Z,6.83
2019-06-26T11:07:57.989Z,4.30
2019-06-26T11:10:47.007Z,5.90
2019-06-26T11:13:36.264Z,6.30
2019-06-26T11:16:24.883Z,8.58
2019-06-26T11:19:13.595Z,4.33
2019-06-26T11:22:02.052Z,3.90
2019-06-26T11:24:50.625Z,5.58
2019-06-26T11:27:39.271Z,6.33
2019-06-26T11:30:28.314Z,6.53
2019-06-26T11:33:17.152Z,4.65
2019-06-26T11:36:05.787Z,6.83
2019-06-26T11:39:00.054Z,3.77
2019-06-26T11:41:48.652Z,4.67
2019-06-26T11:44:37.452Z,5.97
2019-06-26T11:47:25.993Z,4.35
2019-06-26T11:50:15.234Z,6.10
2019-06-26T11:53:03.722Z,6.70
2019-06-26T11:55:52.212Z,11.55
2019-06-26T11:58:40.678Z,5.90
2019-06-26T12:01:29.390Z,7.62
2019-06-26T12:04:18.183Z,6.80
2019-06-26T12:07:06.716Z,7.67
2019-06-26T12:09:55.643Z,8.40
2019-06-26T12:12:44.285Z,6.12
2019-06-26T12:15:33.119Z,22.10
2019-06-26T12:18:21.747Z,24.70
2019-06-26T12:21:11.641Z,24.47
2019-06-26T12:24:00.391Z,15.00
2019-06-26T12:26:48.848Z,14.45
2019-06-26T12:29:37.907Z,8.63
2019-06-26T12:32:26.513Z,13.53
2019-06-26T12:35:15.840Z,10.95
2019-06-26T12:38:04.286Z,13.75
2019-06-26T12:40:53.225Z,13.03
2019-06-26T12:43:41.654Z,9.75
2019-06-26T12:46:30.052Z,9.93
2019-06-26T12:49:18.861Z,14.78
2019-06-26T12:52:07.510Z,13.70
2019-06-26T12:54:56.056Z,13.58
2019-06-26T12:57:44.662Z,13.03
2019-06-26T13:00:33.053Z,18.67
2019-06-26T13:03:21.685Z,21.68
2019-06-26T13:06:10.606Z,29.30
2019-06-26T13:08:58.936Z,32.28
2019-06-26T13:11:47.423Z,23.27
2019-06-26T13:14:36.166Z,25.10
2019-06-26T13:17:24.968Z,27.17
2019-06-26T13:20:15.428Z,29.45
2019-06-26T13:23:04.030Z,36.48
2019-06-26T13:25:52.425Z,44.55
2019-06-26T13:28:40.838Z,43.45
2019-06-26T13:31:29.532Z,41.73
2019-06-26T13:34:17.980Z,37.98
2019-06-26T13:37:07.410Z,42.05
2019-06-26T13:39:56.560Z,55.10
2019-06-26T13:42:45.438Z,53.42
2019-06-26T13:45:33.771Z,39.85
2019-06-26T13:48:22.300Z,27.67
2019-06-26T13:51:11.170Z,22.85
2019-06-26T13:53:59.794Z,19.37
2019-06-26T13:56:48.340Z,19.92
2019-06-26T13:59:36.997Z,20.57
2019-06-26T14:02:25.648Z,24.90
2019-06-26T14:05:14.454Z,21.62
2019-06-26T14:08:02.792Z,16.15
2019-06-26T14:10:51.458Z,18.30
2019-06-26T14:13:41.882Z,13.85
2019-06-26T14:16:30.450Z,9.25
2019-06-26T14:19:18.918Z,8.75
2019-06-26T14:22:07.532Z,8.35
2019-06-26T14:24:55.914Z,11.18
2019-06-26T14:27:44.340Z,8.93
2019-06-26T14:30:33.152Z,11.60
2019-06-26T14:33:21.521Z,8.53
2019-06-26T14:36:10.224Z,7.03
2019-06-26T14:38:58.900Z,8.35
2019-06-26T14:41:47.709Z,5.75
2019-06-26T14:44:36.574Z,8.65
2019-06-26T14:47:25.682Z,6.67
2019-06-26T14:50:14.848Z,8.75
2019-06-26T14:53:03.572Z,7.87
2019-06-26T14:55:52.089Z,8.83
2019-06-26T14:58:40.576Z,8.43
2019-06-26T15:01:29.398Z,5.08
2019-06-26T15:04:18.122Z,8.45
2019-06-26T15:07:06.589Z,9.80
2019-06-26T15:09:54.919Z,9.73
2019-06-26T15:12:43.900Z,16.30
2019-06-26T15:15:32.612Z,7.08
2019-06-26T15:18:21.307Z,9.10
2019-06-26T15:21:09.844Z,10.80
2019-06-26T15:23:58.223Z,8.58
2019-06-26T15:26:46.878Z,5.35
2019-06-26T15:29:36.332Z,9.05
2019-06-26T15:32:24.787Z,9.30
2019-06-26T15:35:13.580Z,7.87
2019-06-26T15:38:02.634Z,8.20
2019-06-26T15:40:51.332Z,12.73
2019-06-26T15:43:39.994Z,5.80
2019-06-26T15:46:28.396Z,10.10
2019-06-26T15:49:16.932Z,9.65
2019-06-26T15:52:14.516Z,8.28
2019-06-26T15:54:55.237Z,8.00
2019-06-26T15:57:43.586Z,9.10
2019-06-26T16:00:32.007Z,10.48
2019-06-26T16:03:20.698Z,10.88
2019-06-26T16:06:11.391Z,14.33
2019-06-26T16:08:59.960Z,11.15
2019-06-26T16:11:48.603Z,15.83
2019-06-26T16:14:37.061Z,12.35
2019-06-26T16:17:43.320Z,14.23
2019-06-26T16:20:31.936Z,12.58
2019-06-26T16:23:20.491Z,8.85
2019-06-26T16:26:09.304Z,13.85
2019-06-26T16:28:57.751Z,8.83
2019-06-26T16:31:46.246Z,8.50
2019-06-26T16:34:34.638Z,15.23
2019-06-26T16:37:23.391Z,12.07
2019-06-26T16:40:12.233Z,16.00
2019-06-26T16:43:00.888Z,14.83
2019-06-26T16:45:49.345Z,7.10
2019-06-26T16:48:38.030Z,10.65
2019-06-26T16:51:26.576Z,13.70
2019-06-26T16:54:15.408Z,16.20
2019-06-26T16:57:03.799Z,14.55
2019-06-26T17:00:05.001Z,13.43
2019-06-26T17:02:42.377Z,11.95
2019-06-26T17:05:30.716Z,11.88
2019-06-26T17:08:19.529Z,18.20
2019-06-26T17:11:08.085Z,14.95
2019-06-26T17:13:56.503Z,17.52
2019-06-26T17:16:45.187Z,10.90
2019-06-26T17:19:33.587Z,11.80
2019-06-26T17:22:21.906Z,13.50
2019-06-26T17:25:11.792Z,19.80
2019-06-26T17:28:00.506Z,17.55
2019-06-26T17:30:52.002Z,16.27
2019-06-26T17:33:38.888Z,15.13
2019-06-26T17:36:28.950Z,10.63
2019-06-26T17:39:18.098Z,11.25
2019-06-26T17:42:06.527Z,16.35
2019-06-26T17:44:55.054Z,11.83
2019-06-26T17:47:44.102Z,12.78
2019-06-26T17:50:32.820Z,12.45
2019-06-26T17:53:22.331Z,12.15
2019-06-26T17:56:10.824Z,11.08
2019-06-26T17:58:59.292Z,10.75
2019-06-26T18:01:47.917Z,13.80
2019-06-26T18:04:36.424Z,9.63
2019-06-26T18:07:25.138Z,6.95
2019-06-26T18:10:14.009Z,11.25
2019-06-26T18:13:02.381Z,15.00
2019-06-26T18:15:51.112Z,11.53
2019-06-26T18:18:39.945Z,12.05
2019-06-26T18:21:28.549Z,11.12
2019-06-26T18:24:17.106Z,12.35
2019-06-26T18:27:06.156Z,9.60
2019-06-26T18:29:54.533Z,12.47
2019-06-26T18:32:43.348Z,11.05
2019-06-26T18:35:32.095Z,13.65
2019-06-26T18:38:20.773Z,12.25
2019-06-26T18:41:09.418Z,17.60
2019-06-26T18:43:57.797Z,18.67
2019-06-26T18:46:46.393Z,15.40
2019-06-26T18:49:35.126Z,17.82
2019-06-26T18:52:23.428Z,20.65
2019-06-26T18:55:13.058Z,13.78
2019-06-26T18:58:01.534Z,13.68
2019-06-26T19:00:55.298Z,14.80
2019-06-26T19:03:48.503Z,14.05
2019-06-26T19:06:37.187Z,9.28
2019-06-26T19:09:26.091Z,14.25
2019-06-26T19:12:14.771Z,17.42
2019-06-26T19:15:03.872Z,13.22
2019-06-26T19:17:52.642Z,11.55
2019-06-26T19:20:41.746Z,10.85
2019-06-26T19:23:30.572Z,9.48
2019-06-26T19:26:19.414Z,17.27
2019-06-26T19:29:08.100Z,11.78
2019-06-26T19:31:56.597Z,12.00
2019-06-26T19:34:45.131Z,13.53
2019-06-26T19:37:33.970Z,12.07
2019-06-26T19:40:24.159Z,9.33
2019-06-26T19:43:12.456Z,13.58
2019-06-26T19:46:01.277Z,13.98
2019-06-26T19:48:49.873Z,14.03
2019-06-26T19:51:38.390Z,9.98
2019-06-26T19:54:31.919Z,10.98
2019-06-26T19:57:17.186Z,10.65
2019-06-26T20:00:11.532Z,16.48
2019-06-26T20:03:00.462Z,14.07
2019-06-26T20:06:08.071Z,16.15
2019-06-26T20:08:57.746Z,10.68
2019-06-26T20:11:47.133Z,9.43
2019-06-26T20:14:35.977Z,20.10
2019-06-26T20:17:24.570Z,14.65
2019-06-26T20:20:13.674Z,17.10
2019-06-26T20:23:02.539Z,16.40
2019-06-26T20:25:51.548Z,13.38
2019-06-26T20:28:40.376Z,19.17
2019-06-26T20:31:28.907Z,16.45
2019-06-26T20:34:17.752Z,19.55
2019-06-26T20:37:06.148Z,17.87
2019-06-26T20:39:54.846Z,24.00
2019-06-26T20:42:43.329Z,18.87
2019-06-26T20:45:32.171Z,15.03
2019-06-26T20:48:20.481Z,18.30
2019-06-26T20:51:09.215Z,20.57
2019-06-26T20:53:59.495Z,21.00
2019-06-26T20:56:48.338Z,18.92
2019-06-26T20:59:38.429Z,21.65
2019-06-26T21:03:21.696Z,19.10
2019-06-26T21:06:28.040Z,16.35
2019-06-26T21:09:20.607Z,14.40
2019-06-26T21:12:08.968Z,18.27
2019-06-26T21:14:57.795Z,16.50
2019-06-26T21:17:46.436Z,13.08
2019-06-26T21:20:34.834Z,20.72
2019-06-26T21:23:23.661Z,15.30
2019-06-26T21:26:12.373Z,15.70
2019-06-26T21:29:01.185Z,17.75
2019-06-26T21:31:49.634Z,14.78
2019-06-26T21:34:38.283Z,17.27
2019-06-26T21:37:27.006Z,15.10
2019-06-26T21:40:15.641Z,17.92
2019-06-26T21:43:04.573Z,19.40
2019-06-26T21:45:53.138Z,19.23
2019-06-26T21:48:41.625Z,22.73
2019-06-26T21:51:30.431Z,21.12
2019-06-26T21:54:19.271Z,15.55
2019-06-26T21:57:25.785Z,18.95
2019-06-26T22:00:34.260Z,18.62
2019-06-26T22:03:40.530Z,14.85
2019-06-26T22:06:39.730Z,17.07
2019-06-26T22:09:32.540Z,19.45
2019-06-26T22:12:21.284Z,18.62
2019-06-26T22:15:10.041Z,16.80
2019-06-26T22:17:58.979Z,16.52
2019-06-26T22:20:47.751Z,16.27
2019-06-26T22:23:36.403Z,17.77
2019-06-26T22:26:25.079Z,13.65
2019-06-26T22:29:13.725Z,13.25
2019-06-26T22:32:02.654Z,18.48
2019-06-26T22:34:51.141Z,16.70
2019-06-26T22:37:39.530Z,14.87
2019-06-26T22:40:28.017Z,16.05
2019-06-26T22:43:16.672Z,14.53
2019-06-26T22:46:05.612Z,16.10
2019-06-26T22:48:54.475Z,15.93
2019-06-26T22:51:43.292Z,18.05
2019-06-26T22:54:31.790Z,15.32
2019-06-26T22:57:20.539Z,19.25
2019-06-26T23:00:11.432Z,18.90
2019-06-26T23:03:00.372Z,22.52
2019-06-26T23:05:49.000Z,14.83
2019-06-26T23:08:37.594Z,13.60
2019-06-26T23:11:26.297Z,12.60
2019-06-26T23:14:16.161Z,13.00
2019-06-26T23:17:05.094Z,14.55
2019-06-26T23:19:53.808Z,17.90
2019-06-26T23:22:42.522Z,14.30
2019-06-26T23:25:31.245Z,11.95
2019-06-26T23:28:19.881Z,13.28
2019-06-26T23:31:09.541Z,17.67
2019-06-26T23:33:58.115Z,11.48
2019-06-26T23:36:46.543Z,13.58
2019-06-26T23:39:35.316Z,11.57
2019-06-26T23:42:23.972Z,15.00
2019-06-26T23:45:12.616Z,17.50
2019-06-26T23:48:01.389Z,13.88
2019-06-26T23:50:49.866Z,17.92
2019-06-26T23:53:38.711Z,13.43
2019-06-26T23:56:39.899Z,12.45
2019-06-26T23:59:17.032Z,14.47
